createdAt,value
2019-04-06T00:00:14.519Z,8.30
2019-04-06T00:01:28.240Z,8.30
2019-04-06T00:02:36.682Z,8.30
2019-04-06T00:03:41.794Z,8.40
2019-04-06T00:04:46.613Z,8.30
2019-04-06T00:05:51.633Z,8.40
2019-04-06T00:06:56.640Z,8.30
2019-04-06T00:08:01.527Z,8.30
2019-04-06T00:09:08.070Z,8.30
2019-04-06T00:10:13.281Z,8.20
2019-04-06T00:11:18.245Z,8.10
2019-04-06T00:12:23.480Z,8.10
2019-04-06T00:13:28.485Z,8.10
2019-04-06T00:14:33.741Z,8.10
2019-04-06T00:15:38.881Z,8.00
2019-04-06T00:16:44.186Z,8.00
2019-04-06T00:17:49.170Z,8.00
2019-04-06T00:18:54.340Z,8.00
2019-04-06T00:19:59.516Z,7.90
2019-04-06T00:21:04.528Z,7.90
2019-04-06T00:22:09.737Z,7.80
2019-04-06T00:23:14.842Z,7.70
2019-04-06T00:24:19.948Z,7.60
2019-04-06T00:25:24.987Z,7.50
2019-04-06T00:26:29.990Z,7.40
2019-04-06T00:27:34.972Z,7.40
2019-04-06T00:28:40.254Z,7.40
2019-04-06T00:29:45.146Z,7.30
2019-04-06T00:31:02.408Z,7.40
2019-04-06T00:32:15.088Z,7.40
2019-04-06T00:33:20.975Z,7.40
2019-04-06T00:34:25.779Z,7.50
2019-04-06T00:35:30.668Z,7.40
2019-04-06T00:36:36.205Z,7.30
2019-04-06T00:37:41.212Z,7.40
2019-04-06T00:38:46.048Z,7.50
2019-04-06T00:39:51.038Z,7.50
2019-04-06T00:40:56.028Z,7.50
2019-04-06T00:42:01.237Z,7.50
2019-04-06T00:43:06.199Z,7.50
2019-04-06T00:44:11.311Z,7.60
2019-04-06T00:45:16.481Z,7.60
2019-04-06T00:46:21.572Z,7.60
2019-04-06T00:47:27.499Z,7.50
2019-04-06T00:48:32.675Z,7.50
2019-04-06T00:49:37.742Z,7.50
2019-04-06T00:50:42.768Z,7.40
2019-04-06T00:51:47.650Z,7.30
2019-04-06T00:52:52.845Z,7.30
2019-04-06T00:53:57.904Z,7.20
2019-04-06T00:55:02.800Z,7.20
2019-04-06T00:56:07.715Z,7.10
2019-04-06T00:57:13.004Z,7.10
2019-04-06T00:58:18.001Z,7.10
2019-04-06T00:59:22.875Z,7.00
2019-04-06T01:00:27.876Z,7.00
2019-04-06T01:01:33.058Z,6.90
2019-04-06T01:02:38.047Z,7.00
2019-04-06T01:03:43.246Z,7.00
2019-04-06T01:04:48.331Z,7.00
2019-04-06T01:05:53.374Z,7.00
2019-04-06T01:06:58.529Z,7.00
2019-04-06T01:08:03.669Z,7.00
2019-04-06T01:09:10.917Z,7.00
2019-04-06T01:10:16.312Z,7.10
2019-04-06T01:11:21.269Z,7.10
2019-04-06T01:12:26.132Z,7.10
2019-04-06T01:13:31.267Z,7.10
2019-04-06T01:14:36.215Z,7.10
2019-04-06T01:15:41.299Z,7.10
2019-04-06T01:16:46.271Z,7.20
2019-04-06T01:17:51.187Z,7.20
2019-04-06T01:18:56.275Z,7.30
2019-04-06T01:20:01.480Z,7.30
2019-04-06T01:21:06.732Z,7.30
2019-04-06T01:22:11.828Z,7.30
2019-04-06T01:23:16.991Z,7.30
2019-04-06T01:24:22.069Z,7.30
2019-04-06T01:25:28.661Z,7.40
2019-04-06T01:26:33.465Z,7.30
2019-04-06T01:27:38.651Z,7.30
2019-04-06T01:28:43.862Z,7.40
2019-04-06T01:29:49.218Z,7.40
2019-04-06T01:30:54.165Z,7.40
2019-04-06T01:31:59.233Z,7.40
2019-04-06T01:33:04.227Z,7.40
2019-04-06T01:34:09.442Z,7.40
2019-04-06T01:35:14.387Z,7.30
2019-04-06T01:36:19.372Z,7.30
2019-04-06T01:37:24.467Z,7.40
2019-04-06T01:38:29.515Z,7.30
2019-04-06T01:39:34.730Z,7.30
2019-04-06T01:40:39.836Z,7.20
2019-04-06T01:41:44.792Z,7.20
2019-04-06T01:42:49.759Z,7.10
2019-04-06T01:43:54.749Z,7.10
2019-04-06T01:44:59.795Z,7.20
2019-04-06T01:46:04.772Z,7.20
2019-04-06T01:47:09.789Z,7.10
2019-04-06T01:48:14.675Z,7.20
2019-04-06T01:49:19.870Z,7.10
2019-04-06T01:50:24.985Z,7.10
2019-04-06T01:51:29.941Z,7.10
2019-04-06T01:52:35.056Z,7.00
2019-04-06T01:53:40.301Z,6.90
2019-04-06T01:54:45.488Z,6.80
2019-04-06T01:55:50.658Z,6.70
2019-04-06T01:56:55.812Z,6.60
2019-04-06T01:58:01.022Z,6.50
2019-04-06T01:59:06.221Z,6.50
2019-04-06T02:00:12.954Z,6.50
2019-04-06T02:01:35.307Z,6.50
2019-04-06T02:02:42.348Z,6.40
2019-04-06T02:03:47.209Z,6.30
2019-04-06T02:04:52.232Z,6.30
2019-04-06T02:05:57.237Z,6.20
2019-04-06T02:07:02.521Z,6.30
2019-04-06T02:08:07.420Z,6.30
2019-04-06T02:09:12.895Z,6.30
2019-04-06T02:10:18.383Z,6.20
2019-04-06T02:11:23.738Z,6.10
2019-04-06T02:12:29.063Z,6.00
2019-04-06T02:13:34.008Z,6.10
2019-04-06T02:14:39.099Z,6.20
2019-04-06T02:15:44.053Z,6.20
2019-04-06T02:16:49.125Z,6.10
2019-04-06T02:17:54.247Z,6.00
2019-04-06T02:18:59.133Z,6.00
2019-04-06T02:20:04.209Z,6.00
2019-04-06T02:21:09.231Z,5.90
2019-04-06T02:22:14.287Z,6.00
2019-04-06T02:23:19.180Z,6.10
2019-04-06T02:24:24.266Z,6.20
2019-04-06T02:25:29.451Z,6.30
2019-04-06T02:26:34.295Z,6.30
2019-04-06T02:27:39.264Z,6.40
2019-04-06T02:28:44.386Z,6.40
2019-04-06T02:30:08.115Z,6.40
2019-04-06T02:31:20.328Z,6.40
2019-04-06T02:32:33.992Z,6.30
2019-04-06T02:34:10.459Z,6.30
2019-04-06T02:35:46.624Z,6.20
2019-04-06T02:37:08.575Z,6.30
2019-04-06T02:38:25.992Z,6.20
2019-04-06T02:39:55.403Z,6.10
2019-04-06T02:41:08.359Z,6.00
2019-04-06T02:42:17.739Z,5.80
2019-04-06T02:43:25.313Z,5.80
2019-04-06T02:44:30.612Z,5.70
2019-04-06T02:45:35.861Z,5.60
2019-04-06T02:46:40.708Z,5.60
2019-04-06T02:47:46.041Z,5.50
2019-04-06T02:48:51.340Z,5.50
2019-04-06T02:49:56.221Z,5.50
2019-04-06T02:51:01.445Z,5.40
2019-04-06T02:52:06.511Z,5.40
2019-04-06T02:53:11.455Z,5.40
2019-04-06T02:54:16.419Z,5.40
2019-04-06T02:55:21.331Z,5.30
2019-04-06T02:56:26.288Z,5.30
2019-04-06T02:57:31.395Z,5.30
2019-04-06T02:58:36.846Z,5.30
2019-04-06T02:59:41.971Z,5.20
2019-04-06T03:00:47.084Z,5.20
2019-04-06T03:01:52.073Z,5.20
2019-04-06T03:02:57.041Z,5.20
2019-04-06T03:04:02.309Z,5.10
2019-04-06T03:05:07.425Z,5.10
2019-04-06T03:06:12.310Z,5.10
2019-04-06T03:07:17.747Z,5.10
2019-04-06T03:08:23.082Z,5.10
2019-04-06T03:09:28.552Z,5.00
2019-04-06T03:10:33.590Z,4.90
2019-04-06T03:11:38.716Z,5.00
2019-04-06T03:12:43.868Z,4.90
2019-04-06T03:13:48.992Z,4.90
2019-04-06T03:14:54.373Z,4.80
2019-04-06T03:15:59.456Z,4.80
2019-04-06T03:17:04.533Z,4.80
2019-04-06T03:18:09.427Z,4.80
2019-04-06T03:19:14.806Z,4.80
2019-04-06T03:20:19.719Z,4.70
2019-04-06T03:21:26.375Z,4.80
2019-04-06T03:22:31.418Z,4.70
2019-04-06T03:23:49.707Z,4.70
2019-04-06T03:24:43.164Z,4.70
2019-04-06T03:25:48.193Z,4.70
2019-04-06T03:27:00.734Z,4.60
2019-04-06T03:28:00.708Z,4.70
2019-04-06T03:29:05.710Z,4.60
2019-04-06T03:30:11.603Z,4.60
2019-04-06T03:31:16.361Z,4.60
2019-04-06T03:32:21.579Z,4.60
2019-04-06T03:33:27.125Z,4.60
2019-04-06T03:34:32.214Z,4.50
2019-04-06T03:35:37.721Z,4.50
2019-04-06T03:36:42.917Z,4.60
2019-04-06T03:37:48.176Z,4.50
2019-04-06T03:38:53.200Z,4.50
2019-04-06T03:39:58.211Z,4.40
2019-04-06T03:41:03.196Z,4.40
2019-04-06T03:42:10.631Z,4.40
2019-04-06T03:43:14.845Z,4.40
2019-04-06T03:44:19.669Z,4.40
2019-04-06T03:45:24.709Z,4.40
2019-04-06T03:46:29.914Z,4.40
2019-04-06T03:47:34.765Z,4.40
2019-04-06T03:48:39.854Z,4.30
2019-04-06T03:49:45.085Z,4.40
2019-04-06T03:50:50.064Z,4.60
2019-04-06T03:51:55.209Z,4.80
2019-04-06T03:53:00.237Z,4.90
2019-04-06T03:54:05.555Z,5.10
2019-04-06T03:55:10.747Z,5.20
2019-04-06T03:56:18.847Z,5.30
2019-04-06T03:57:24.117Z,5.30
2019-04-06T03:58:29.171Z,5.30
2019-04-06T03:59:35.276Z,5.40
2019-04-06T04:00:40.274Z,5.50
2019-04-06T04:01:45.337Z,5.50
2019-04-06T04:02:50.335Z,5.50
2019-04-06T04:03:55.554Z,5.50
2019-04-06T04:05:00.796Z,5.60
2019-04-06T04:06:05.598Z,5.50
2019-04-06T04:07:10.533Z,5.50
2019-04-06T04:08:15.892Z,5.50
2019-04-06T04:09:21.013Z,5.60
2019-04-06T04:10:38.280Z,5.60
2019-04-06T04:11:43.198Z,5.60
2019-04-06T04:12:48.429Z,5.60
2019-04-06T04:13:53.387Z,5.70
2019-04-06T04:14:58.432Z,5.70
2019-04-06T04:16:03.470Z,5.60
2019-04-06T04:17:08.561Z,5.70
2019-04-06T04:18:13.651Z,5.70
2019-04-06T04:19:18.759Z,5.70
2019-04-06T04:20:23.874Z,5.70
2019-04-06T04:21:28.924Z,5.80
2019-04-06T04:22:35.200Z,5.80
2019-04-06T04:23:40.666Z,5.80
2019-04-06T04:24:46.291Z,5.80
2019-04-06T04:25:51.211Z,5.90
2019-04-06T04:26:56.139Z,5.80
2019-04-06T04:28:01.380Z,5.70
2019-04-06T04:29:06.931Z,5.60
2019-04-06T04:30:15.074Z,5.50
2019-04-06T04:31:18.844Z,5.50
2019-04-06T04:32:23.920Z,5.40
2019-04-06T04:33:28.958Z,5.30
2019-04-06T04:34:34.081Z,5.30
2019-04-06T04:35:39.201Z,5.20
2019-04-06T04:36:44.289Z,5.20
2019-04-06T04:37:49.072Z,5.20
2019-04-06T04:38:53.965Z,5.20
2019-04-06T04:39:59.357Z,5.10
2019-04-06T04:41:04.638Z,5.10
2019-04-06T04:42:09.480Z,5.10
2019-04-06T04:43:14.753Z,5.10
2019-04-06T04:44:19.648Z,5.20
2019-04-06T04:45:25.073Z,5.10
2019-04-06T04:46:30.236Z,5.10
2019-04-06T04:47:35.550Z,5.00
2019-04-06T04:48:40.450Z,5.00
2019-04-06T04:49:46.033Z,5.00
2019-04-06T04:50:52.061Z,5.00
2019-04-06T04:51:57.333Z,4.90
2019-04-06T04:53:02.356Z,4.90
2019-04-06T04:54:08.210Z,4.90
2019-04-06T04:55:13.631Z,4.90
2019-04-06T04:56:18.746Z,4.90
2019-04-06T04:57:23.639Z,4.80
2019-04-06T04:58:29.374Z,4.90
2019-04-06T04:59:34.364Z,4.90
2019-04-06T05:00:39.945Z,5.00
2019-04-06T05:01:45.371Z,5.10
2019-04-06T05:02:50.838Z,5.20
2019-04-06T05:03:56.219Z,5.30
2019-04-06T05:05:01.574Z,5.40
2019-04-06T05:06:07.139Z,5.40
2019-04-06T05:07:12.538Z,5.40
2019-04-06T05:08:17.643Z,5.50
2019-04-06T05:09:22.804Z,5.60
2019-04-06T05:10:28.032Z,5.60
2019-04-06T05:11:33.061Z,5.70
2019-04-06T05:12:38.140Z,5.70
2019-04-06T05:13:43.484Z,5.70
2019-04-06T05:15:06.526Z,5.90
2019-04-06T05:16:12.798Z,5.90
2019-04-06T05:17:17.896Z,6.00
2019-04-06T05:18:22.884Z,6.10
2019-04-06T05:19:28.037Z,6.10
2019-04-06T05:20:33.418Z,6.10
2019-04-06T05:21:38.622Z,6.20
2019-04-06T05:22:43.514Z,6.20
2019-04-06T05:23:48.640Z,6.20
2019-04-06T05:24:54.680Z,6.40
2019-04-06T05:25:59.619Z,6.40
2019-04-06T05:27:04.701Z,6.50
2019-04-06T05:28:09.736Z,6.50
2019-04-06T05:29:14.743Z,6.50
2019-04-06T05:30:20.009Z,6.60
2019-04-06T05:31:25.523Z,6.70
2019-04-06T05:32:30.882Z,6.70
2019-04-06T05:33:36.243Z,6.70
2019-04-06T05:34:41.447Z,6.80
2019-04-06T05:35:46.978Z,6.90
2019-04-06T05:36:52.241Z,6.90
2019-04-06T05:37:57.613Z,7.00
2019-04-06T05:39:02.857Z,7.00
2019-04-06T05:40:08.041Z,7.10
2019-04-06T05:41:13.167Z,7.10
2019-04-06T05:42:18.607Z,7.10
2019-04-06T05:43:24.052Z,7.10
2019-04-06T05:44:28.905Z,7.10
2019-04-06T05:45:34.108Z,7.30
2019-04-06T05:46:39.489Z,7.30
2019-04-06T05:47:44.665Z,7.30
2019-04-06T05:48:49.875Z,7.30
2019-04-06T05:49:55.127Z,7.40
2019-04-06T05:51:00.319Z,7.40
2019-04-06T05:52:05.413Z,7.50
2019-04-06T05:53:10.326Z,7.50
2019-04-06T05:54:15.479Z,7.60
2019-04-06T05:55:20.628Z,7.50
2019-04-06T05:56:25.423Z,7.50
2019-04-06T05:57:32.099Z,7.50
2019-04-06T05:58:39.942Z,7.60
2019-04-06T05:59:45.098Z,7.60
2019-04-06T06:00:49.914Z,7.60
2019-04-06T06:01:54.728Z,7.70
2019-04-06T06:02:59.731Z,7.60
2019-04-06T06:04:04.650Z,7.60
2019-04-06T06:05:10.417Z,7.70
2019-04-06T06:06:15.876Z,7.70
2019-04-06T06:07:20.787Z,7.80
2019-04-06T06:08:25.678Z,7.90
2019-04-06T06:09:30.336Z,7.80
2019-04-06T06:10:35.583Z,7.80
2019-04-06T06:11:40.378Z,7.90
2019-04-06T06:12:45.123Z,7.90
2019-04-06T06:13:49.939Z,7.90
2019-04-06T06:14:57.728Z,7.90
2019-04-06T06:16:04.297Z,7.90
2019-04-06T06:17:09.693Z,7.90
2019-04-06T06:18:25.389Z,7.90
2019-04-06T06:19:21.204Z,7.90
2019-04-06T06:20:26.143Z,7.90
2019-04-06T06:21:31.100Z,8.00
2019-04-06T06:22:36.262Z,8.00
2019-04-06T06:23:41.295Z,8.00
2019-04-06T06:24:46.356Z,8.10
2019-04-06T06:25:51.529Z,8.10
2019-04-06T06:26:56.676Z,8.10
2019-04-06T06:28:01.776Z,8.10
2019-04-06T06:29:07.937Z,8.10
2019-04-06T06:30:12.944Z,8.20
2019-04-06T06:31:17.838Z,8.20
2019-04-06T06:32:22.678Z,8.20
2019-04-06T06:33:27.638Z,8.20
2019-04-06T06:34:32.390Z,8.30
2019-04-06T06:35:37.459Z,8.30
2019-04-06T06:36:42.425Z,8.40
2019-04-06T06:37:47.254Z,8.40
2019-04-06T06:38:51.955Z,8.40
2019-04-06T06:39:56.964Z,8.40
2019-04-06T06:41:02.165Z,8.50
2019-04-06T06:42:07.419Z,8.50
2019-04-06T06:43:12.278Z,8.50
2019-04-06T06:44:17.176Z,8.60
2019-04-06T06:45:22.545Z,8.60
2019-04-06T06:46:27.451Z,8.70
2019-04-06T06:47:32.505Z,8.70
2019-04-06T06:48:37.613Z,8.80
2019-04-06T06:49:42.843Z,8.80
2019-04-06T06:50:47.891Z,8.80
2019-04-06T06:51:52.997Z,8.90
2019-04-06T06:52:58.058Z,8.90
2019-04-06T06:54:03.122Z,8.90
2019-04-06T06:55:08.521Z,8.90
2019-04-06T06:56:13.416Z,8.90
2019-04-06T06:57:18.263Z,9.00
2019-04-06T06:58:25.683Z,9.10
2019-04-06T06:59:29.948Z,9.10
2019-04-06T07:00:34.760Z,9.20
2019-04-06T07:01:39.986Z,9.20
2019-04-06T07:02:44.927Z,9.10
2019-04-06T07:03:50.007Z,9.20
2019-04-06T07:04:55.208Z,9.20
2019-04-06T07:06:00.077Z,9.30
2019-04-06T07:07:05.149Z,9.40
2019-04-06T07:08:10.035Z,9.40
2019-04-06T07:09:15.221Z,9.40
2019-04-06T07:10:20.395Z,9.40
2019-04-06T07:11:25.478Z,9.50
2019-04-06T07:12:30.583Z,9.50
2019-04-06T07:13:35.639Z,9.60
2019-04-06T07:14:40.503Z,9.60
2019-04-06T07:15:45.531Z,9.70
2019-04-06T07:16:50.490Z,9.70
2019-04-06T07:17:55.541Z,9.80
2019-04-06T07:19:00.602Z,9.80
2019-04-06T07:20:06.812Z,9.90
2019-04-06T07:21:11.931Z,9.90
2019-04-06T07:22:17.125Z,10.00
2019-04-06T07:23:22.122Z,10.00
2019-04-06T07:24:27.528Z,10.10
2019-04-06T07:25:32.723Z,10.00
2019-04-06T07:26:37.863Z,10.10
2019-04-06T07:27:42.976Z,10.10
2019-04-06T07:28:48.023Z,10.10
2019-04-06T07:29:53.299Z,10.20
2019-04-06T07:30:58.493Z,10.30
2019-04-06T07:32:03.523Z,10.30
2019-04-06T07:33:08.648Z,10.40
2019-04-06T07:34:13.848Z,10.40
2019-04-06T07:35:19.060Z,10.40
2019-04-06T07:36:24.040Z,10.40
2019-04-06T07:37:29.134Z,10.50
2019-04-06T07:38:34.339Z,10.50
2019-04-06T07:39:39.531Z,10.60
2019-04-06T07:40:44.830Z,10.70
2019-04-06T07:41:49.928Z,10.80
2019-04-06T07:42:55.212Z,10.80
2019-04-06T07:44:00.260Z,10.90
2019-04-06T07:45:05.858Z,10.90
2019-04-06T07:46:11.217Z,11.00
2019-04-06T07:47:16.568Z,11.10
2019-04-06T07:48:21.970Z,11.10
2019-04-06T07:49:27.056Z,11.10
2019-04-06T07:50:32.092Z,11.30
2019-04-06T07:51:37.148Z,11.30
2019-04-06T07:52:42.426Z,11.40
2019-04-06T07:53:47.357Z,11.40
2019-04-06T07:54:52.229Z,11.50
2019-04-06T07:55:57.402Z,11.60
2019-04-06T07:57:02.613Z,11.60
2019-04-06T07:58:07.482Z,11.80
2019-04-06T07:59:12.467Z,11.80
2019-04-06T08:00:17.659Z,11.80
2019-04-06T08:01:22.718Z,11.90
2019-04-06T08:02:27.853Z,11.90
2019-04-06T08:03:32.964Z,12.00
2019-04-06T08:04:37.873Z,12.00
2019-04-06T08:05:42.888Z,12.00
2019-04-06T08:06:47.805Z,12.10
2019-04-06T08:07:53.021Z,12.10
2019-04-06T08:08:58.170Z,12.10
2019-04-06T08:10:02.963Z,12.20
2019-04-06T08:11:08.216Z,12.20
2019-04-06T08:12:13.292Z,12.20
2019-04-06T08:13:18.416Z,12.20
2019-04-06T08:14:23.687Z,12.40
2019-04-06T08:15:28.768Z,12.40
2019-04-06T08:16:33.587Z,12.40
2019-04-06T08:17:38.864Z,12.50
2019-04-06T08:18:43.904Z,12.60
2019-04-06T08:19:48.824Z,12.70
2019-04-06T08:20:53.701Z,12.80
2019-04-06T08:21:58.567Z,12.90
2019-04-06T08:23:03.453Z,12.90
2019-04-06T08:24:08.597Z,13.00
2019-04-06T08:25:13.714Z,13.00
2019-04-06T08:26:18.662Z,13.20
2019-04-06T08:27:23.605Z,13.10
2019-04-06T08:28:28.532Z,13.20
2019-04-06T08:29:33.379Z,13.20
2019-04-06T08:30:45.709Z,13.30
2019-04-06T08:31:44.858Z,13.30
2019-04-06T08:32:49.772Z,13.30
2019-04-06T08:33:54.729Z,13.40
2019-04-06T08:34:59.640Z,13.40
2019-04-06T08:36:04.790Z,13.50
2019-04-06T08:37:09.890Z,13.60
2019-04-06T08:38:14.832Z,13.60
2019-04-06T08:39:19.723Z,13.70
2019-04-06T08:40:24.695Z,13.70
2019-04-06T08:41:29.602Z,13.80
2019-04-06T08:42:34.564Z,13.80
2019-04-06T08:43:39.496Z,13.80
2019-04-06T08:44:44.603Z,14.00
2019-04-06T08:45:49.652Z,14.00
2019-04-06T08:46:54.654Z,14.10
2019-04-06T08:47:59.612Z,14.20
2019-04-06T08:49:04.804Z,14.30
2019-04-06T08:50:09.775Z,14.40
2019-04-06T08:51:14.694Z,14.40
2019-04-06T08:52:19.692Z,14.50
2019-04-06T08:53:24.687Z,14.50
2019-04-06T08:54:29.768Z,14.60
2019-04-06T08:55:34.653Z,14.50
2019-04-06T08:56:39.638Z,14.60
2019-04-06T08:57:44.760Z,14.70
2019-04-06T08:58:49.673Z,14.80
2019-04-06T08:59:54.731Z,14.80
2019-04-06T09:00:59.654Z,14.80
2019-04-06T09:02:04.586Z,14.70
2019-04-06T09:03:09.568Z,14.70
2019-04-06T09:04:14.728Z,14.80
2019-04-06T09:05:19.764Z,14.80
2019-04-06T09:06:24.639Z,14.80
2019-04-06T09:07:29.552Z,14.80
2019-04-06T09:08:34.509Z,14.90
2019-04-06T09:09:39.742Z,14.90
2019-04-06T09:10:44.776Z,14.90
2019-04-06T09:11:49.805Z,14.90
2019-04-06T09:12:54.692Z,15.00
2019-04-06T09:14:00.027Z,15.10
2019-04-06T09:15:05.659Z,15.10
2019-04-06T09:16:10.756Z,15.10
2019-04-06T09:17:15.659Z,15.10
2019-04-06T09:18:20.626Z,15.10
2019-04-06T09:19:25.561Z,15.10
2019-04-06T09:20:30.531Z,15.20
2019-04-06T09:21:35.411Z,15.20
2019-04-06T09:22:40.306Z,15.20
2019-04-06T09:23:45.250Z,15.10
2019-04-06T09:24:50.168Z,15.20
2019-04-06T09:25:55.176Z,15.10
2019-04-06T09:26:59.984Z,15.00
2019-04-06T09:28:05.113Z,14.80
2019-04-06T09:29:10.051Z,14.90
2019-04-06T09:30:15.239Z,14.90
2019-04-06T09:31:20.134Z,15.00
2019-04-06T09:32:25.019Z,15.10
2019-04-06T09:33:30.015Z,15.10
2019-04-06T09:34:34.846Z,15.20
2019-04-06T09:35:39.808Z,15.30
2019-04-06T09:36:44.727Z,15.30
2019-04-06T09:37:49.874Z,15.40
2019-04-06T09:38:54.849Z,15.40
2019-04-06T09:39:59.735Z,15.50
2019-04-06T09:41:04.532Z,15.60
2019-04-06T09:42:36.947Z,15.60
2019-04-06T09:43:48.112Z,15.70
2019-04-06T09:45:15.908Z,15.80
2019-04-06T09:46:47.554Z,15.80
2019-04-06T09:48:09.175Z,15.80
2019-04-06T09:49:29.002Z,15.70
2019-04-06T09:51:12.726Z,15.80
2019-04-06T09:52:37.320Z,15.80
2019-04-06T09:54:05.644Z,16.10
2019-04-06T09:55:25.630Z,16.20
2019-04-06T09:56:55.492Z,16.10
2019-04-06T09:58:24.889Z,16.00
2019-04-06T10:00:07.155Z,15.90
2019-04-06T10:01:38.549Z,15.90
2019-04-06T10:02:58.012Z,16.00
2019-04-06T10:04:31.111Z,16.10
2019-04-06T10:05:55.113Z,16.20
2019-04-06T10:07:21.500Z,16.00
2019-04-06T10:08:43.639Z,16.00
2019-04-06T10:10:13.166Z,16.10
2019-04-06T10:11:42.733Z,16.10
2019-04-06T10:13:05.269Z,15.90
2019-04-06T10:14:29.223Z,16.10
2019-04-06T10:15:53.201Z,16.00
2019-04-06T10:17:19.716Z,16.00
2019-04-06T10:18:30.868Z,16.20
2019-04-06T10:20:00.433Z,16.30
2019-04-06T10:21:24.191Z,16.40
2019-04-06T10:22:38.555Z,16.40
2019-04-06T10:24:20.609Z,16.30
2019-04-06T10:25:32.428Z,16.30
2019-04-06T10:26:58.707Z,16.20
2019-04-06T10:28:11.884Z,16.20
2019-04-06T10:29:48.803Z,16.30
2019-04-06T10:31:23.288Z,16.30
2019-04-06T10:32:40.235Z,16.40
2019-04-06T10:34:13.139Z,16.50
2019-04-06T10:35:45.769Z,16.50
2019-04-06T10:37:09.771Z,16.60
2019-04-06T10:38:33.911Z,16.50
2019-04-06T10:40:00.721Z,16.50
2019-04-06T10:41:33.068Z,16.70
2019-04-06T10:43:12.013Z,16.80
2019-04-06T10:44:35.710Z,16.80
2019-04-06T10:45:49.933Z,16.50
2019-04-06T10:47:13.694Z,16.60
2019-04-06T10:48:52.266Z,16.80
2019-04-06T10:50:15.914Z,17.00
2019-04-06T10:51:54.858Z,17.00
2019-04-06T10:53:20.637Z,17.10
2019-04-06T10:54:50.113Z,17.20
2019-04-06T10:56:07.313Z,17.50
2019-04-06T10:57:29.931Z,17.70
2019-04-06T10:59:05.651Z,18.00
2019-04-06T11:00:32.041Z,18.40
2019-04-06T11:02:01.621Z,19.00
2019-04-06T11:03:27.692Z,19.40
2019-04-06T11:04:43.162Z,19.80
2019-04-06T11:05:53.651Z,20.10
2019-04-06T11:07:17.285Z,20.40
2019-04-06T11:08:39.515Z,20.50
2019-04-06T11:10:01.674Z,20.70
2019-04-06T11:11:31.131Z,21.10
2019-04-06T11:12:53.052Z,21.20
2019-04-06T11:14:22.712Z,21.50
2019-04-06T11:15:49.358Z,21.70
2019-04-06T11:17:15.506Z,21.70
2019-04-06T11:18:41.901Z,21.90
2019-04-06T11:20:05.621Z,22.50
2019-04-06T11:21:21.570Z,22.00
2019-04-06T11:22:48.065Z,22.30
2019-04-06T11:24:14.926Z,22.50
2019-04-06T11:25:27.694Z,22.70
2019-04-06T11:26:51.282Z,23.30
2019-04-06T11:28:13.698Z,23.30
2019-04-06T11:29:43.190Z,23.40
2019-04-06T11:30:59.090Z,23.50
2019-04-06T11:32:25.375Z,23.40
2019-04-06T11:33:42.772Z,23.40
2019-04-06T11:35:15.351Z,23.50
2019-04-06T11:36:45.210Z,23.90
2019-04-06T11:38:23.828Z,24.50
2019-04-06T11:39:50.667Z,24.60
2019-04-06T11:41:26.605Z,25.00
2019-04-06T11:42:43.084Z,25.10
2019-04-06T11:44:06.847Z,25.20
2019-04-06T11:45:21.585Z,25.10
2019-04-06T11:46:43.696Z,24.60
2019-04-06T11:48:06.225Z,24.30
2019-04-06T11:49:29.036Z,24.00
2019-04-06T11:51:01.766Z,23.60
2019-04-06T11:52:28.226Z,23.40
2019-04-06T11:53:47.897Z,22.80
2019-04-06T11:55:02.952Z,22.50
2019-04-06T11:56:15.598Z,22.00
2019-04-06T11:57:38.979Z,21.70
2019-04-06T11:59:17.601Z,21.60
2019-04-06T12:00:35.015Z,21.40
2019-04-06T12:01:47.320Z,21.40
2019-04-06T12:03:14.314Z,21.50
2019-04-06T12:04:30.907Z,21.70
2019-04-06T12:05:53.407Z,22.10
2019-04-06T12:07:09.155Z,22.30
2019-04-06T12:08:32.797Z,22.60
2019-04-06T12:09:49.092Z,22.90
2019-04-06T12:11:17.364Z,22.50
2019-04-06T12:12:38.873Z,22.50
2019-04-06T12:14:02.948Z,22.30
2019-04-06T12:15:19.673Z,22.10
2019-04-06T12:16:55.727Z,22.60
2019-04-06T12:18:31.538Z,22.50
2019-04-06T12:20:10.678Z,22.90
2019-04-06T12:21:40.519Z,22.80
2019-04-06T12:22:51.494Z,23.20
2019-04-06T12:24:17.958Z,23.20
2019-04-06T12:25:40.279Z,23.40
2019-04-06T12:27:02.662Z,23.50
2019-04-06T12:28:38.473Z,24.00
2019-04-06T12:30:02.311Z,24.80
2019-04-06T12:31:38.147Z,25.30
2019-04-06T12:32:57.184Z,25.50
2019-04-06T12:34:19.721Z,25.40
2019-04-06T12:35:41.993Z,26.10
2019-04-06T12:37:01.496Z,26.30
2019-04-06T12:38:25.830Z,26.80
2019-04-06T12:39:53.091Z,26.80
2019-04-06T12:41:11.429Z,26.50
2019-04-06T12:42:34.006Z,26.20
2019-04-06T12:44:09.876Z,26.30
2019-04-06T12:45:34.758Z,25.90
2019-04-06T12:46:57.622Z,25.90
2019-04-06T12:48:36.747Z,26.30
2019-04-06T12:50:13.007Z,26.60
2019-04-06T12:51:29.567Z,26.90
2019-04-06T12:52:56.361Z,26.60
2019-04-06T12:54:32.467Z,27.00
2019-04-06T12:55:56.745Z,27.90
2019-04-06T12:57:26.440Z,28.20
2019-04-06T12:58:38.776Z,28.60
2019-04-06T13:00:01.502Z,28.20
2019-04-06T13:01:24.256Z,28.80
2019-04-06T13:02:50.565Z,29.30
2019-04-06T13:04:14.501Z,29.30
2019-04-06T13:05:31.893Z,29.10
2019-04-06T13:07:01.866Z,28.90
2019-04-06T13:08:21.387Z,28.50
2019-04-06T13:10:00.304Z,27.40
2019-04-06T13:11:27.410Z,27.40
2019-04-06T13:12:49.865Z,27.40
2019-04-06T13:14:12.281Z,27.40
2019-04-06T13:15:28.881Z,27.60
2019-04-06T13:16:42.228Z,27.70
2019-04-06T13:18:06.021Z,27.90
2019-04-06T13:19:28.697Z,27.30
2019-04-06T13:20:41.379Z,27.00
2019-04-06T13:22:11.515Z,27.30
2019-04-06T13:23:41.175Z,27.90
2019-04-06T13:25:08.620Z,28.50
2019-04-06T13:26:31.296Z,29.40
2019-04-06T13:27:45.976Z,29.60
2019-04-06T13:29:19.108Z,29.70
2019-04-06T13:30:43.047Z,29.20
2019-04-06T13:32:06.176Z,29.50
2019-04-06T13:33:32.454Z,30.90
2019-04-06T13:34:44.819Z,30.20
2019-04-06T13:36:20.736Z,30.10
2019-04-06T13:38:02.903Z,30.10
2019-04-06T13:39:37.276Z,30.60
2019-04-06T13:41:00.132Z,31.00
2019-04-06T13:42:36.030Z,31.70
2019-04-06T13:44:05.505Z,31.50
2019-04-06T13:45:22.577Z,30.80
2019-04-06T13:46:44.294Z,30.30
2019-04-06T13:48:14.647Z,29.90
2019-04-06T13:49:44.309Z,29.70
2019-04-06T13:50:55.089Z,29.10
2019-04-06T13:52:18.950Z,29.10
2019-04-06T13:53:42.769Z,29.00
2019-04-06T13:55:06.690Z,29.20
2019-04-06T13:56:29.622Z,29.50
2019-04-06T13:57:39.614Z,29.20
2019-04-06T13:59:02.274Z,28.30
2019-04-06T14:00:29.007Z,28.20
2019-04-06T14:01:45.573Z,28.00
2019-04-06T14:03:09.308Z,28.10
2019-04-06T14:04:24.995Z,28.50
2019-04-06T14:05:37.135Z,29.00
2019-04-06T14:07:03.687Z,29.10
2019-04-06T14:08:26.403Z,29.40
2019-04-06T14:09:55.965Z,29.10
2019-04-06T14:11:19.829Z,28.90
2019-04-06T14:12:46.560Z,29.40
2019-04-06T14:14:04.833Z,29.70
2019-04-06T14:15:30.282Z,30.10
2019-04-06T14:17:00.030Z,29.70
2019-04-06T14:18:32.744Z,29.40
2019-04-06T14:20:02.162Z,28.50
2019-04-06T14:21:19.169Z,27.90
2019-04-06T14:23:00.970Z,26.70
2019-04-06T14:24:43.156Z,26.00
2019-04-06T14:26:24.784Z,26.40
2019-04-06T14:27:51.314Z,27.40
2019-04-06T14:29:09.947Z,26.90
2019-04-06T14:30:40.168Z,27.20
2019-04-06T14:32:06.941Z,27.60
2019-04-06T14:33:29.440Z,28.20
2019-04-06T14:35:08.232Z,29.30
2019-04-06T14:36:21.890Z,29.60
2019-04-06T14:37:51.578Z,29.70
2019-04-06T14:39:18.392Z,29.30
2019-04-06T14:40:36.942Z,29.10
2019-04-06T14:41:59.986Z,29.10
2019-04-06T14:43:27.258Z,29.50
2019-04-06T14:45:03.414Z,29.40
2019-04-06T14:46:30.069Z,29.20
2019-04-06T14:47:57.189Z,28.20
2019-04-06T14:49:27.908Z,28.10
2019-04-06T14:50:38.059Z,28.50
2019-04-06T14:52:17.007Z,29.30
2019-04-06T14:53:46.879Z,29.30
2019-04-06T14:55:19.854Z,29.90
2019-04-06T14:56:56.074Z,30.10
2019-04-06T14:58:32.697Z,29.70
2019-04-06T14:59:56.738Z,29.10
2019-04-06T15:01:13.493Z,28.60
2019-04-06T15:02:37.488Z,28.40
2019-04-06T15:04:00.065Z,28.20
2019-04-06T15:05:36.567Z,27.40
2019-04-06T15:07:09.409Z,27.20
2019-04-06T15:08:44.148Z,26.60
2019-04-06T15:10:00.870Z,26.50
2019-04-06T15:11:28.130Z,25.90
2019-04-06T15:13:01.003Z,25.70
2019-04-06T15:14:28.223Z,25.00
2019-04-06T15:15:51.103Z,25.30
2019-04-06T15:17:18.137Z,25.60
2019-04-06T15:18:40.372Z,26.10
2019-04-06T15:20:07.518Z,25.90
2019-04-06T15:21:25.743Z,26.50
2019-04-06T15:22:47.652Z,26.90
2019-04-06T15:24:10.529Z,26.20
2019-04-06T15:25:37.882Z,26.10
2019-04-06T15:26:52.034Z,26.10
2019-04-06T15:28:16.165Z,26.50
2019-04-06T15:29:40.373Z,26.90
2019-04-06T15:30:58.078Z,27.20
2019-04-06T15:32:37.660Z,26.50
2019-04-06T15:34:04.839Z,26.30
2019-04-06T15:35:29.743Z,26.20
2019-04-06T15:36:39.882Z,25.60
2019-04-06T15:38:16.163Z,25.60
2019-04-06T15:39:28.805Z,25.10
2019-04-06T15:40:41.984Z,25.30
2019-04-06T15:41:57.221Z,25.60